1884 NOT_NAMED (1884316S06095)


IBTrACS version v04r00. Visit IBTrACS website for data access.
Please direct all questions to the IBTrACS Q and A forum

Storm track - Intensity - Wind Radii - Intensity Data - Source Data - All data

Summary Information

Storm ID 1884316S06095
Start Nov 11 06Z
End Nov 18 06Z
ATCF IDs
Track status Best track data.

Storm track plot

Map of storm track

Intensity plots

No Intensity information for this storm


Radial wind information

No radial wind information for this storm


Position and Intensity Table

BASIN ISO_TIME_________ NATURE LAT LON
degrees north degrees east
SI 1884-11-11 06:00:00 NR -6.40 94.70
SI 09:00:00 NR -6.49 94.54
SI 12:00:00 NR -6.59 94.38
SI 15:00:00 NR -6.68 94.21
SI 18:00:00 NR -6.78 94.04
SI 21:00:00 NR -6.88 93.87
SI 1884-11-12 00:00:00 NR -6.98 93.69
SI 03:00:00 NR -7.09 93.50
SI 06:00:00 NR -7.20 93.30
SI 09:00:00 NR -7.32 93.09
SI 12:00:00 NR -7.44 92.87
SI 15:00:00 NR -7.58 92.65
SI 18:00:00 NR -7.72 92.41
SI 21:00:00 NR -7.87 92.17
SI 1884-11-13 00:00:00 NR -8.03 91.92
SI 03:00:00 NR -8.21 91.66
SI 06:00:00 NR -8.40 91.40
SI 09:00:00 NR -8.61 91.13
SI 12:00:00 NR -8.82 90.85
SI 15:00:00 NR -9.06 90.57
SI 18:00:00 NR -9.30 90.29
SI 21:00:00 NR -9.55 90.00
SI 1884-11-14 00:00:00 NR -9.80 89.73
SI 03:00:00 NR -10.05 89.46
SI 06:00:00 NR -10.30 89.20
SI 09:00:00 NR -10.54 88.95
SI 12:00:00 NR -10.77 88.72
SI 15:00:00 NR -11.01 88.49
SI 18:00:00 NR -11.24 88.27
SI 21:00:00 NR -11.48 88.07
SI 1884-11-15 00:00:00 NR -11.72 87.87
SI 03:00:00 NR -11.96 87.68
SI 06:00:00 NR -12.20 87.50
SI 09:00:00 NR -12.46 87.31
SI 12:00:00 NR -12.72 87.14
SI 15:00:00 NR -12.98 86.97
SI 18:00:00 NR -13.24 86.81
SI 21:00:00 NR -13.50 86.66
SI 1884-11-16 00:00:00 NR -13.75 86.53
SI 03:00:00 NR -13.98 86.41
SI 06:00:00 NR -14.20 86.30
SI 09:00:00 NR -14.39 86.20
SI 12:00:00 NR -14.55 86.12
SI 15:00:00 NR -14.71 86.05
SI 18:00:00 NR -14.86 85.99
SI 21:00:00 NR -15.01 85.94
SI 1884-11-17 00:00:00 NR -15.17 85.89
SI 03:00:00 NR -15.33 85.84
SI 06:00:00 NR -15.50 85.80
SI 09:00:00 NR -15.69 85.75
SI 12:00:00 NR -15.89 85.71
SI 15:00:00 NR -16.11 85.66
SI 18:00:00 NR -16.33 85.61
SI 21:00:00 NR -16.57 85.56
SI 1884-11-18 00:00:00 NR -16.81 85.51
SI 03:00:00 NR -17.05 85.45
SI 06:00:00 NR -17.30 85.40

Source Information

Agency Information
USA
TOKYO
CMA
HKO
NEWDELHI
REUNION WMO-Best-Tracks.txt:Line=1383:xxxx884203
BOM
NADI
WELLINGTON
DS824
TD9636
TD9635
NEUMANN
MLC

All available IBTrACS Data

SEASON BASIN SUBBASIN ISO_TIME_________ NATURE LAT LON DIST2LAND LANDFALL IFLAG USA SSHS REUNION LAT REUNION LON REUNION TYPE REUNION TNUM STORM SPEED STORM DIR
Year degrees north degrees east km km 1 degrees north degrees east 1 kts degrees
1885 SI WA 1884-11-11 06:00:00 NR -6.40 94.70 703 703 _____O________ -1 -6.40 94.70 99 9.90 4 239
1885 SI WA 09:00:00 NR -6.49 94.54 726 726 _____P________ -1 -6.49 94.54 99 4 240
1885 SI WA 12:00:00 NR -6.59 94.38 742 742 _____P________ -1 -6.59 94.38 99 4 240
1885 SI WA 15:00:00 NR -6.68 94.21 765 765 _____P________ -1 -6.68 94.21 99 4 240
1885 SI WA 18:00:00 NR -6.78 94.04 788 788 _____P________ -1 -6.78 94.04 99 4 240
1885 SI WA 21:00:00 NR -6.88 93.87 804 804 _____P________ -1 -6.88 93.87 99 4 240
1885 SI WA 1884-11-12 00:00:00 NR -6.98 93.69 827 827 _____P________ -1 -6.98 93.69 99 4 240
1885 SI WA 03:00:00 NR -7.09 93.50 851 851 _____P________ -1 -7.09 93.50 99 4 240
1885 SI WA 06:00:00 NR -7.20 93.30 875 875 _____O________ -1 -7.20 93.30 99 9.90 5 240
1885 SI WA 09:00:00 NR -7.32 93.09 898 898 _____P________ -1 -7.32 93.09 99 5 240
1885 SI WA 12:00:00 NR -7.44 92.87 922 922 _____P________ -1 -7.44 92.87 99 5 240
1885 SI WA 15:00:00 NR -7.58 92.65 961 961 _____P________ -1 -7.58 92.65 99 5 239
1885 SI WA 18:00:00 NR -7.72 92.41 985 985 _____P________ -1 -7.72 92.41 99 6 238
1885 SI WA 21:00:00 NR -7.87 92.17 1017 1017 _____P________ -1 -7.87 92.17 99 6 237
1885 SI WA 1884-11-13 00:00:00 NR -8.03 91.92 1049 1049 _____P________ -1 -8.03 91.92 99 6 236
1885 SI WA 03:00:00 NR -8.21 91.66 1080 1080 _____P________ -1 -8.21 91.66 99 6 234
1885 SI WA 06:00:00 NR -8.40 91.40 1119 1119 _____O________ -1 -8.40 91.40 99 9.90 7 233
1885 SI WA 09:00:00 NR -8.61 91.13 1159 1159 _____P________ -1 -8.61 91.13 99 7 232
1885 SI WA 12:00:00 NR -8.82 90.85 1190 1190 _____P________ -1 -8.82 90.85 99 7 231
1885 SI WA 15:00:00 NR -9.06 90.57 1237 1237 _____P________ -1 -9.06 90.57 99 7 230
1885 SI WA 18:00:00 NR -9.30 90.29 1277 1277 _____P________ -1 -9.30 90.29 99 7 229
1885 SI WA 21:00:00 NR -9.55 90.00 1316 1316 _____P________ -1 -9.55 90.00 99 7 228
1885 SI MM 1884-11-14 00:00:00 NR -9.80 89.73 1363 1363 _____P________ -1 -9.80 89.73 99 7 227
1885 SI MM 03:00:00 NR -10.05 89.46 1395 1395 _____P________ -1 -10.05 89.46 99 7 226
1885 SI MM 06:00:00 NR -10.30 89.20 1441 1441 _____O________ -1 -10.30 89.20 99 9.90 7 225
1885 SI MM 09:00:00 NR -10.54 88.95 1473 1473 _____P________ -1 -10.54 88.95 99 7 225
1885 SI MM 12:00:00 NR -10.77 88.72 1519 1519 _____P________ -1 -10.77 88.72 99 7 224
1885 SI MM 15:00:00 NR -11.01 88.49 1551 1551 _____P________ -1 -11.01 88.49 99 6 223
1885 SI MM 18:00:00 NR -11.24 88.27 1582 1582 _____P________ -1 -11.24 88.27 99 6 221
1885 SI MM 21:00:00 NR -11.48 88.07 1621 1621 _____P________ -1 -11.48 88.07 99 6 220
1885 SI MM 1884-11-15 00:00:00 NR -11.72 87.87 1652 1652 _____P________ -1 -11.72 87.87 99 6 218
1885 SI MM 03:00:00 NR -11.96 87.68 1690 1690 _____P________ -1 -11.96 87.68 99 6 217
1885 SI MM 06:00:00 NR -12.20 87.50 1722 1722 _____O________ -1 -12.20 87.50 99 9.90 6 216
1885 SI MM 09:00:00 NR -12.46 87.31 1760 1760 _____P________ -1 -12.46 87.31 99 6 214
1885 SI MM 12:00:00 NR -12.72 87.14 1791 1791 _____P________ -1 -12.72 87.14 99 6 213
1885 SI MM 15:00:00 NR -12.98 86.97 1822 1822 _____P________ -1 -12.98 86.97 99 6 211
1885 SI MM 18:00:00 NR -13.24 86.81 1853 1853 _____P________ -1 -13.24 86.81 99 6 210
1885 SI MM 21:00:00 NR -13.50 86.66 1884 1884 _____P________ -1 -13.50 86.66 99 6 209
1885 SI MM 1884-11-16 00:00:00 NR -13.75 86.53 1915 1915 _____P________ -1 -13.75 86.53 99 5 207
1885 SI MM 03:00:00 NR -13.98 86.41 1946 1946 _____P________ -1 -13.98 86.41 99 5 206
1885 SI MM 06:00:00 NR -14.20 86.30 1970 1970 _____O________ -1 -14.20 86.30 99 9.90 5 206
1885 SI MM 09:00:00 NR -14.39 86.20 1993 1993 _____P________ -1 -14.39 86.20 99 4 206
1885 SI MM 12:00:00 NR -14.55 86.12 2016 2016 _____P________ -1 -14.55 86.12 99 4 205
1885 SI MM 15:00:00 NR -14.71 86.05 2032 2032 _____P________ -1 -14.71 86.05 99 3 202
1885 SI MM 18:00:00 NR -14.86 85.99 2048 2048 _____P________ -1 -14.86 85.99 99 3 200
1885 SI MM 21:00:00 NR -15.01 85.94 2063 2063 _____P________ -1 -15.01 85.94 99 3 198
1885 SI MM 1884-11-17 00:00:00 NR -15.17 85.89 2079 2079 _____P________ -1 -15.17 85.89 99 3 196
1885 SI MM 03:00:00 NR -15.33 85.84 2095 2095 _____P________ -1 -15.33 85.84 99 3 195
1885 SI MM 06:00:00 NR -15.50 85.80 2111 2111 _____O________ -1 -15.50 85.80 99 9.90 4 194
1885 SI MM 09:00:00 NR -15.69 85.75 2127 2127 _____P________ -1 -15.69 85.75 99 4 193
1885 SI MM 12:00:00 NR -15.89 85.71 2150 2150 _____P________ -1 -15.89 85.71 99 4 192
1885 SI MM 15:00:00 NR -16.11 85.66 2166 2166 _____P________ -1 -16.11 85.66 99 5 193
1885 SI MM 18:00:00 NR -16.33 85.61 2190 2190 _____P________ -1 -16.33 85.61 99 5 192
1885 SI MM 21:00:00 NR -16.57 85.56 2215 2215 _____P________ -1 -16.57 85.56 99 5 191
1885 SI MM 1884-11-18 00:00:00 NR -16.81 85.51 2238 2238 _____P________ -1 -16.81 85.51 99 5 192
1885 SI MM 03:00:00 NR -17.05 85.45 2263 2263 _____P________ -1 -17.05 85.45 99 5 191
1885 SI MM 06:00:00 NR -17.30 85.40 2287 _____O________ -1 -17.30 85.40 99 9.90 5 193